Time,TemperatureF,DewpointF,PressureIn,WindDirection,WindDirectionDegrees,WindSpeedMPH,WindSpeedGustMPH,Humidity,HourlyPrecipIn,Conditions,Clouds,dailyrainin,SoftwareType,DateUTC
2013-03-14 00:12:00,41.0,27.0,29.88,SSE,168,2.0,3.0,58,0.00,,,0.00,,2013-03-14 04:12:00,
2013-03-14 00:22:00,40.0,26.0,29.88,SSW,209,0.0,7.0,58,0.00,,,0.00,,2013-03-14 04:22:00,
2013-03-14 00:32:00,40.0,27.0,29.88,SW,214,1.0,3.0,59,0.00,,,0.00,,2013-03-14 04:32:00,
2013-03-14 00:42:00,40.0,27.0,29.88,SW,214,1.0,3.0,59,0.00,,,0.00,,2013-03-14 04:42:00,
2013-03-14 00:52:00,40.0,28.0,29.88,South,183,0.0,5.0,61,0.00,,,0.00,,2013-03-14 04:52:00,
2013-03-14 01:02:00,39.0,28.0,29.88,North,358,0.0,3.0,64,0.00,,,0.00,,2013-03-14 05:02:00,
2013-03-14 01:12:00,39.0,28.0,29.88,North,358,0.0,3.0,64,0.00,,,0.00,,2013-03-14 05:12:00,
2013-03-14 01:22:00,39.0,29.0,29.88,SW,230,1.0,5.0,66,0.00,,,0.00,,2013-03-14 05:22:00,
2013-03-14 01:33:00,39.0,28.0,29.88,ENE,63,1.0,5.0,65,0.00,,,0.00,,2013-03-14 05:33:00,
2013-03-14 01:42:00,39.0,28.0,29.88,ENE,63,1.0,5.0,65,0.00,,,0.00,,2013-03-14 05:42:00,
2013-03-14 01:52:00,38.0,27.0,29.88,South,180,1.0,5.0,63,0.00,,,0.00,,2013-03-14 05:52:00,
2013-03-14 02:02:00,38.0,27.0,29.88,NNE,18,1.0,3.0,64,0.00,,,0.00,,2013-03-14 06:02:00,
2013-03-14 02:12:00,38.0,27.0,29.88,NNE,18,1.0,3.0,64,0.00,,,0.00,,2013-03-14 06:12:00,
2013-03-14 02:22:00,37.0,26.0,29.88,ESE,107,2.0,3.0,65,0.00,,,0.00,,2013-03-14 06:22:00,
2013-03-14 02:33:00,37.0,25.0,29.89,NE,40,2.0,5.0,62,0.00,,,0.00,,2013-03-14 06:33:00,
2013-03-14 02:42:00,37.0,25.0,29.89,NE,40,2.0,5.0,62,0.00,,,0.00,,2013-03-14 06:42:00,
2013-03-14 02:52:00,37.0,25.0,29.89,NW,321,3.0,5.0,61,0.00,,,0.00,,2013-03-14 06:52:00,
2013-03-14 03:02:00,36.0,23.0,29.89,North,7,1.0,3.0,60,0.00,,,0.00,,2013-03-14 07:02:00,
2013-03-14 03:12:00,36.0,23.0,29.89,North,7,1.0,3.0,60,0.00,,,0.00,,2013-03-14 07:12:00,
2013-03-14 03:22:00,36.0,23.0,29.89,North,0,1.0,5.0,60,0.00,,,0.00,,2013-03-14 07:22:00,
2013-03-14 03:32:00,36.0,22.0,29.89,ESE,111,2.0,5.0,56,0.00,,,0.00,,2013-03-14 07:32:00,
2013-03-14 03:43:00,36.0,22.0,29.89,ESE,111,2.0,5.0,56,0.00,,,0.00,,2013-03-14 07:43:00,
2013-03-14 03:52:00,36.0,23.0,29.88,SW,231,1.0,5.0,58,0.00,,,0.00,,2013-03-14 07:52:00,
2013-03-14 04:02:00,36.0,19.0,29.88,NW,313,1.0,6.0,50,0.00,,,0.00,,2013-03-14 08:02:00,
2013-03-14 04:12:00,36.0,19.0,29.88,NW,313,1.0,6.0,50,0.00,,,0.00,,2013-03-14 08:12:00,
2013-03-14 04:22:00,35.0,18.0,29.88,NNW,331,1.0,3.0,49,0.00,,,0.00,,2013-03-14 08:22:00,
2013-03-14 04:32:00,35.0,19.0,29.88,SSE,161,1.0,5.0,51,0.00,,,0.00,,2013-03-14 08:32:00,
2013-03-14 04:42:00,35.0,19.0,29.88,SSE,161,1.0,5.0,51,0.00,,,0.00,,2013-03-14 08:42:00,
2013-03-14 04:52:00,35.0,20.0,29.88,SE,144,1.0,9.0,53,0.00,,,0.00,,2013-03-14 08:52:00,
2013-03-14 05:02:00,34.0,17.0,29.89,North,7,2.0,8.0,50,0.00,,,0.00,,2013-03-14 09:02:00,
2013-03-14 05:12:00,34.0,17.0,29.89,North,7,2.0,8.0,50,0.00,,,0.00,,2013-03-14 09:12:00,
2013-03-14 05:22:00,34.0,18.0,29.89,SSW,198,1.0,6.0,51,0.00,,,0.00,,2013-03-14 09:22:00,
2013-03-14 05:32:00,33.0,18.0,29.91,SSW,194,1.0,7.0,53,0.00,,,0.00,,2013-03-14 09:32:00,
2013-03-14 05:42:00,33.0,18.0,29.91,SSW,194,1.0,7.0,53,0.00,,,0.00,,2013-03-14 09:42:00,
2013-03-14 05:52:00,32.0,15.0,29.91,SW,229,3.0,5.0,49,0.00,,,0.00,,2013-03-14 09:52:00,
2013-03-14 06:02:00,32.0,16.0,29.91,West,271,2.0,5.0,51,0.00,,,0.00,,2013-03-14 10:02:00,
2013-03-14 06:12:00,32.0,16.0,29.91,West,271,2.0,5.0,51,0.00,,,0.00,,2013-03-14 10:12:00,
2013-03-14 06:22:00,32.0,16.0,29.91,SSE,153,1.0,5.0,51,0.00,,,0.00,,2013-03-14 10:22:00,
2013-03-14 06:32:00,32.0,16.0,29.91,SSW,195,0.0,2.0,52,0.00,,,0.00,,2013-03-14 10:32:00,
2013-03-14 06:42:00,32.0,16.0,29.91,SSW,195,0.0,2.0,52,0.00,,,0.00,,2013-03-14 10:42:00,
2013-03-14 06:52:00,32.0,16.0,29.91,SW,214,2.0,3.0,52,0.00,,,0.00,,2013-03-14 10:52:00,
2013-03-14 07:02:00,32.0,16.0,29.91,East,82,1.0,6.0,51,0.00,,,0.00,,2013-03-14 11:02:00,
2013-03-14 07:12:00,32.0,16.0,29.91,East,82,1.0,6.0,51,0.00,,,0.00,,2013-03-14 11:12:00,
2013-03-14 07:22:00,32.0,16.0,29.91,South,191,0.0,1.0,52,0.00,,,0.00,,2013-03-14 11:22:00,
2013-03-14 07:33:00,32.0,15.0,29.91,SW,215,1.0,6.0,49,0.00,,,0.00,,2013-03-14 11:33:00,
2013-03-14 07:42:00,32.0,15.0,29.91,SW,215,1.0,6.0,49,0.00,,,0.00,,2013-03-14 11:42:00,
2013-03-14 07:52:00,32.0,15.0,29.91,South,180,0.0,5.0,50,0.00,,,0.00,,2013-03-14 11:52:00,
2013-03-14 08:02:00,32.0,15.0,29.92,NE,35,2.0,8.0,50,0.00,,,0.00,,2013-03-14 12:02:00,
2013-03-14 08:12:00,32.0,15.0,29.92,NE,35,2.0,8.0,50,0.00,,,0.00,,2013-03-14 12:12:00,
2013-03-14 08:22:00,32.0,15.0,29.93,NNW,345,2.0,6.0,50,0.00,,,0.00,,2013-03-14 12:22:00,
2013-03-14 08:33:00,31.0,15.0,29.94,West,266,1.0,8.0,51,0.00,,,0.00,,2013-03-14 12:33:00,
2013-03-14 08:42:00,31.0,15.0,29.94,West,266,1.0,8.0,51,0.00,,,0.00,,2013-03-14 12:42:00,
2013-03-14 08:52:00,31.0,16.0,29.94,North,355,0.0,3.0,53,0.00,,,0.00,,2013-03-14 12:52:00,
2013-03-14 09:03:00,30.0,14.0,29.95,NNE,14,8.0,12.0,51,0.00,,,0.00,,2013-03-14 13:03:00,
2013-03-14 09:12:00,30.0,14.0,29.95,NNE,14,8.0,12.0,51,0.00,,,0.00,,2013-03-14 13:12:00,
2013-03-14 09:22:00,31.0,15.0,29.96,East,89,2.0,6.0,51,0.00,,,0.00,,2013-03-14 13:22:00,
2013-03-14 09:32:00,30.0,12.0,29.97,SSW,198,2.0,7.0,46,0.00,,,0.00,,2013-03-14 13:32:00,
2013-03-14 09:42:00,30.0,12.0,29.97,SSW,198,2.0,7.0,46,0.00,,,0.00,,2013-03-14 13:42:00,
2013-03-14 09:52:00,30.0,12.0,29.96,NW,321,1.0,6.0,46,0.00,,,0.00,,2013-03-14 13:52:00,
2013-03-14 10:02:00,31.0,12.0,29.97,NW,317,2.0,5.0,45,0.00,,,0.00,,2013-03-14 14:02:00,
2013-03-14 10:12:00,31.0,12.0,29.97,NW,317,2.0,5.0,45,0.00,,,0.00,,2013-03-14 14:12:00,
2013-03-14 10:22:00,31.0,12.0,29.96,ENE,67,3.0,5.0,45,0.00,,,0.00,,2013-03-14 14:22:00,
2013-03-14 10:32:00,31.0,12.0,29.96,ENE,68,5.0,12.0,45,0.00,,,0.00,,2013-03-14 14:32:00,
2013-03-14 10:42:00,31.0,12.0,29.96,ENE,68,5.0,12.0,45,0.00,,,0.00,,2013-03-14 14:42:00,
2013-03-14 10:52:00,32.0,14.0,29.96,SSW,202,1.0,8.0,46,0.00,,,0.00,,2013-03-14 14:52:00,
2013-03-14 11:02:00,31.0,13.0,29.95,North,354,1.0,5.0,47,0.00,,,0.00,,2013-03-14 15:02:00,
2013-03-14 11:12:00,31.0,13.0,29.95,North,354,1.0,5.0,47,0.00,,,0.00,,2013-03-14 15:12:00,
2013-03-14 11:22:00,31.0,14.0,29.96,SSW,213,2.0,7.0,48,0.00,,,0.00,,2013-03-14 15:22:00,
2013-03-14 11:33:00,32.0,14.0,29.95,SW,232,2.0,9.0,47,0.00,,,0.00,,2013-03-14 15:33:00,
2013-03-14 11:43:00,32.0,14.0,29.95,SW,232,2.0,9.0,47,0.00,,,0.00,,2013-03-14 15:43:00,
2013-03-14 11:52:00,33.0,15.0,29.95,North,359,2.0,8.0,47,0.00,,,0.00,,2013-03-14 15:52:00,
2013-03-14 12:03:00,32.0,15.0,29.94,NE,36,2.0,3.0,48,0.00,,,0.00,,2013-03-14 16:03:00,
2013-03-14 12:13:00,32.0,15.0,29.94,NE,36,2.0,3.0,48,0.00,,,0.00,,2013-03-14 16:13:00,
2013-03-14 12:23:00,32.0,15.0,29.94,SE,126,2.0,9.0,48,0.00,,,0.00,,2013-03-14 16:23:00,
2013-03-14 12:32:00,33.0,16.0,29.93,North,4,5.0,8.0,49,0.00,,,0.00,,2013-03-14 16:32:00,
2013-03-14 12:42:00,33.0,16.0,29.93,North,4,5.0,8.0,49,0.00,,,0.00,,2013-03-14 16:42:00,
2013-03-14 12:52:00,33.0,16.0,29.93,NE,50,3.0,8.0,49,0.00,,,0.00,,2013-03-14 16:52:00,
2013-03-14 13:02:00,34.0,16.0,29.93,ENE,76,3.0,10.0,48,0.00,,,0.00,,2013-03-14 17:02:00,
2013-03-14 13:13:00,34.0,16.0,29.93,ENE,76,3.0,10.0,48,0.00,,,0.00,,2013-03-14 17:13:00,
2013-03-14 13:23:00,35.0,16.0,29.92,ESE,105,3.0,13.0,46,0.00,,,0.00,,2013-03-14 17:23:00,
2013-03-14 13:33:00,35.0,17.0,29.91,SSE,168,2.0,6.0,47,0.00,,,0.00,,2013-03-14 17:33:00,
2013-03-14 13:42:00,35.0,17.0,29.91,SSE,168,2.0,6.0,47,0.00,,,0.00,,2013-03-14 17:42:00,
2013-03-14 13:52:00,36.0,17.0,29.91,NNW,342,3.0,8.0,46,0.00,,,0.00,,2013-03-14 17:52:00,
2013-03-14 14:03:00,36.0,18.0,29.90,WNW,289,1.0,8.0,47,0.00,,,0.00,,2013-03-14 18:03:00,
2013-03-14 14:12:00,36.0,18.0,29.90,WNW,289,1.0,8.0,47,0.00,,,0.00,,2013-03-14 18:12:00,
2013-03-14 14:23:00,36.0,16.0,29.90,North,358,3.0,7.0,44,0.00,,,0.00,,2013-03-14 18:23:00,
2013-03-14 14:33:00,37.0,17.0,29.89,WNW,299,2.0,6.0,43,0.00,,,0.00,,2013-03-14 18:33:00,
2013-03-14 14:43:00,37.0,17.0,29.89,WNW,299,2.0,6.0,43,0.00,,,0.00,,2013-03-14 18:43:00,
2013-03-14 14:52:00,39.0,19.0,29.88,SSE,154,1.0,5.0,44,0.00,,,0.00,,2013-03-14 18:52:00,
2013-03-14 15:03:00,38.0,16.0,29.88,South,171,4.0,10.0,41,0.00,,,0.00,,2013-03-14 19:03:00,
2013-03-14 15:12:00,38.0,16.0,29.88,South,171,4.0,10.0,41,0.00,,,0.00,,2013-03-14 19:12:00,
2013-03-14 15:23:00,39.0,17.0,29.88,NNE,13,1.0,8.0,40,0.00,,,0.00,,2013-03-14 19:23:00,
2013-03-14 15:32:00,39.0,17.0,29.87,North,0,5.0,6.0,40,0.00,,,0.00,,2013-03-14 19:32:00,
2013-03-14 15:42:00,39.0,17.0,29.87,North,0,5.0,6.0,40,0.00,,,0.00,,2013-03-14 19:42:00,
2013-03-14 15:52:00,40.0,18.0,29.86,West,267,1.0,5.0,41,0.00,,,0.00,,2013-03-14 19:52:00,
2013-03-14 16:02:00,40.0,16.0,29.86,SSE,153,2.0,5.0,37,0.00,,,0.00,,2013-03-14 20:02:00,
2013-03-14 16:12:00,40.0,16.0,29.86,SSE,153,2.0,5.0,37,0.00,,,0.00,,2013-03-14 20:12:00,
2013-03-14 16:22:00,41.0,17.0,29.86,NNE,19,2.0,7.0,37,0.00,,,0.00,,2013-03-14 20:22:00,
2013-03-14 16:32:00,41.0,16.0,29.85,South,191,1.0,3.0,36,0.00,,,0.00,,2013-03-14 20:32:00,
2013-03-14 16:42:00,41.0,16.0,29.85,South,191,1.0,3.0,36,0.00,,,0.00,,2013-03-14 20:42:00,
2013-03-14 16:52:00,41.0,15.0,29.85,ENE,64,1.0,7.0,34,0.00,,,0.00,,2013-03-14 20:52:00,
2013-03-14 17:03:00,42.0,16.0,29.85,WNW,294,2.0,8.0,35,0.00,,,0.00,,2013-03-14 21:03:00,
2013-03-14 17:13:00,42.0,16.0,29.85,WNW,294,2.0,8.0,35,0.00,,,0.00,,2013-03-14 21:13:00,
2013-03-14 17:22:00,41.0,13.0,29.85,NNW,338,3.0,6.0,31,0.00,,,0.00,,2013-03-14 21:22:00,
2013-03-14 17:33:00,41.0,13.0,29.85,West,275,3.0,9.0,32,0.00,,,0.00,,2013-03-14 21:33:00,
2013-03-14 17:43:00,41.0,13.0,29.85,West,275,3.0,9.0,32,0.00,,,0.00,,2013-03-14 21:43:00,
2013-03-14 17:53:00,41.0,13.0,29.85,East,91,2.0,8.0,31,0.00,,,0.00,,2013-03-14 21:53:00,
2013-03-14 18:04:00,41.0,13.0,29.85,ESE,102,1.0,5.0,31,0.00,,,0.00,,2013-03-14 22:04:00,
2013-03-14 18:13:00,41.0,13.0,29.85,ESE,102,1.0,5.0,31,0.00,,,0.00,,2013-03-14 22:13:00,
2013-03-14 18:23:00,41.0,12.0,29.85,WNW,292,2.0,6.0,30,0.00,,,0.00,,2013-03-14 22:23:00,
2013-03-14 18:33:00,40.0,12.0,29.85,SW,230,1.0,8.0,31,0.00,,,0.00,,2013-03-14 22:33:00,
2013-03-14 18:42:00,40.0,12.0,29.85,SW,230,1.0,8.0,31,0.00,,,0.00,,2013-03-14 22:42:00,
2013-03-14 18:52:00,40.0,10.0,29.86,NNW,331,3.0,6.0,29,0.00,,,0.00,,2013-03-14 22:52:00,
2013-03-14 19:03:00,40.0,11.0,29.87,SE,144,1.0,8.0,30,0.00,,,0.00,,2013-03-14 23:03:00,
2013-03-14 19:12:00,40.0,11.0,29.87,SE,144,1.0,8.0,30,0.00,,,0.00,,2013-03-14 23:12:00,
2013-03-14 19:23:00,40.0,10.0,29.87,West,259,1.0,8.0,29,0.00,,,0.00,,2013-03-14 23:23:00,
2013-03-14 19:33:00,39.0,11.0,29.88,South,171,2.0,5.0,31,0.00,,,0.00,,2013-03-14 23:33:00,
2013-03-14 19:42:00,39.0,11.0,29.88,South,171,2.0,5.0,31,0.00,,,0.00,,2013-03-14 23:42:00,
2013-03-14 19:53:00,39.0,11.0,29.88,South,191,2.0,6.0,31,0.00,,,0.00,,2013-03-14 23:53:00,
2013-03-14 20:02:00,39.0,11.0,29.89,SE,140,2.0,7.0,31,0.00,,,0.00,,2013-03-15 00:02:00,
2013-03-14 20:12:00,39.0,12.0,29.89,WNW,290,1.0,9.0,32,0.00,,,0.00,,2013-03-15 00:12:00,
2013-03-14 20:23:00,39.0,12.0,29.89,WNW,290,1.0,9.0,32,0.00,,,0.00,,2013-03-15 00:23:00,
2013-03-14 20:32:00,38.0,11.0,29.90,NE,46,1.0,6.0,33,0.00,,,0.00,,2013-03-15 00:32:00,
2013-03-14 20:42:00,38.0,11.0,29.90,NE,46,1.0,6.0,33,0.00,,,0.00,,2013-03-15 00:42:00,
2013-03-14 20:52:00,38.0,11.0,29.90,SSW,210,2.0,7.0,32,0.00,,,0.00,,2013-03-15 00:52:00,
2013-03-14 21:02:00,37.0,9.0,29.91,SSE,152,1.0,7.0,31,0.00,,,0.00,,2013-03-15 01:02:00,
2013-03-14 21:12:00,37.0,9.0,29.91,SSE,152,1.0,7.0,31,0.00,,,0.00,,2013-03-15 01:12:00,
2013-03-14 21:22:00,37.0,8.0,29.91,SE,142,2.0,6.0,30,0.00,,,0.00,,2013-03-15 01:22:00,
2013-03-14 21:32:00,37.0,9.0,29.92,West,261,2.0,12.0,31,0.00,,,0.00,,2013-03-15 01:32:00,
2013-03-14 21:42:00,37.0,9.0,29.92,West,261,2.0,12.0,31,0.00,,,0.00,,2013-03-15 01:42:00,
2013-03-14 21:52:00,37.0,10.0,29.92,NW,308,3.0,7.0,32,0.00,,,0.00,,2013-03-15 01:52:00,
2013-03-14 22:03:00,36.0,9.0,29.93,East,94,4.0,8.0,32,0.00,,,0.00,,2013-03-15 02:03:00,
2013-03-14 22:12:00,36.0,9.0,29.93,East,94,4.0,8.0,32,0.00,,,0.00,,2013-03-15 02:12:00,
2013-03-14 22:22:00,36.0,10.0,29.93,SSW,202,3.0,6.0,34,0.00,,,0.00,,2013-03-15 02:22:00,
2013-03-14 22:32:00,36.0,11.0,29.93,SW,229,1.0,6.0,35,0.00,,,0.00,,2013-03-15 02:32:00,
2013-03-14 22:42:00,36.0,11.0,29.93,SW,229,1.0,6.0,35,0.00,,,0.00,,2013-03-15 02:42:00,
2013-03-14 22:52:00,36.0,12.0,29.94,South,177,0.0,3.0,37,0.00,,,0.00,,2013-03-15 02:52:00,
2013-03-14 23:02:00,35.0,9.0,29.95,NNE,18,3.0,6.0,34,0.00,,,0.00,,2013-03-15 03:02:00,
2013-03-14 23:12:00,35.0,9.0,29.95,NNE,18,3.0,6.0,34,0.00,,,0.00,,2013-03-15 03:12:00,
2013-03-14 23:22:00,35.0,11.0,29.95,NNE,22,2.0,3.0,36,0.00,,,0.00,,2013-03-15 03:22:00,
2013-03-14 23:33:00,34.0,10.0,29.96,NW,324,1.0,2.0,36,0.00,,,0.00,,2013-03-15 03:33:00,
2013-03-14 23:43:00,34.0,10.0,29.96,NW,324,1.0,2.0,36,0.00,,,0.00,,2013-03-15 03:43:00,
2013-03-14 23:52:00,34.0,10.0,29.96,East,92,2.0,2.0,36,0.00,,,0.00,,2013-03-15 03:52:00,